createdAt,value
2023-03-24T00:02:05.055Z,9.87
2023-03-24T00:04:36.701Z,9.89
2023-03-24T00:07:08.456Z,9.84
2023-03-24T00:09:39.954Z,9.83
2023-03-24T00:12:11.932Z,9.84
2023-03-24T00:14:43.515Z,9.84
2023-03-24T00:17:17.774Z,9.83
2023-03-24T00:19:50.175Z,9.88
2023-03-24T00:22:21.703Z,9.94
2023-03-24T00:24:53.426Z,9.99
2023-03-24T00:27:24.985Z,10.03
2023-03-24T00:29:59.365Z,10.05
2023-03-24T00:32:30.893Z,10.03
2023-03-24T00:35:02.726Z,10.03
2023-03-24T00:37:34.428Z,10.08
2023-03-24T00:40:08.362Z,10.14
2023-03-24T00:42:39.898Z,10.16
2023-03-24T00:45:11.809Z,10.15
2023-03-24T00:47:44.897Z,10.19
2023-03-24T00:50:17.171Z,10.20
2023-03-24T00:52:49.216Z,10.22
2023-03-24T00:55:23.237Z,10.25
2023-03-24T00:57:55.022Z,8.76
2023-03-24T01:00:26.903Z,10.27
2023-03-24T01:02:58.532Z,10.24
2023-03-24T01:05:30.175Z,10.22
2023-03-24T01:08:03.186Z,10.23
2023-03-24T01:10:35.143Z,10.27
2023-03-24T01:13:06.673Z,10.27
2023-03-24T01:15:38.648Z,10.31
2023-03-24T01:18:10.174Z,10.32
2023-03-24T01:20:42.055Z,10.32
2023-03-24T01:23:14.200Z,10.29
2023-03-24T01:25:48.207Z,10.32
2023-03-24T01:28:21.711Z,10.34
2023-03-24T01:30:53.631Z,10.37
2023-03-24T01:33:25.141Z,10.36
2023-03-24T01:35:56.800Z,10.36
2023-03-24T01:38:28.343Z,10.36
2023-03-24T01:40:59.860Z,10.38
2023-03-24T01:43:31.502Z,10.39
2023-03-24T01:46:03.776Z,10.33
2023-03-24T01:48:35.371Z,10.34
2023-03-24T01:51:07.580Z,10.30
2023-03-24T01:53:39.082Z,10.30
2023-03-24T01:56:11.066Z,10.30
2023-03-24T01:58:42.591Z,10.32
2023-03-24T02:01:14.531Z,10.35
2023-03-24T02:03:46.089Z,10.32
2023-03-24T02:06:18.865Z,10.36
2023-03-24T02:08:50.622Z,10.39
2023-03-24T02:11:22.505Z,10.40
2023-03-24T02:13:54.042Z,10.43
2023-03-24T02:16:25.920Z,10.44
2023-03-24T02:18:57.442Z,10.47
2023-03-24T02:21:29.292Z,10.51
2023-03-24T02:24:00.854Z,10.54
2023-03-24T02:26:32.600Z,10.59
2023-03-24T02:29:04.113Z,10.60
2023-03-24T02:31:35.967Z,10.62
2023-03-24T02:34:07.474Z,10.64
2023-03-24T02:36:39.182Z,10.67
2023-03-24T02:39:10.772Z,10.70
2023-03-24T02:41:42.656Z,10.74
2023-03-24T02:44:14.131Z,10.75
2023-03-24T02:46:46.931Z,10.75
2023-03-24T02:49:18.495Z,10.78
2023-03-24T02:51:50.459Z,10.73
2023-03-24T02:54:21.943Z,10.70
2023-03-24T02:56:53.905Z,10.69
2023-03-24T02:59:25.802Z,10.62
2023-03-24T03:01:57.663Z,10.58
2023-03-24T03:04:29.618Z,10.54
2023-03-24T03:07:01.178Z,10.55
2023-03-24T03:09:32.670Z,10.60
2023-03-24T03:12:04.467Z,10.60
2023-03-24T03:14:35.989Z,10.60
2023-03-24T03:17:08.185Z,10.63
2023-03-24T03:19:39.770Z,10.61
2023-03-24T03:22:12.136Z,10.59
2023-03-24T03:24:43.749Z,10.54
2023-03-24T03:27:15.567Z,10.55
2023-03-24T03:29:47.097Z,10.53
2023-03-24T03:32:18.756Z,10.53
2023-03-24T03:34:50.263Z,10.53
2023-03-24T03:37:22.654Z,10.56
2023-03-24T03:39:54.142Z,10.53
2023-03-24T03:42:26.061Z,10.54
2023-03-24T03:44:57.598Z,10.53
2023-03-24T03:47:29.404Z,10.53
2023-03-24T03:50:00.925Z,10.51
2023-03-24T03:52:32.828Z,10.52
2023-03-24T03:55:04.320Z,10.53
2023-03-24T03:57:36.004Z,10.53
2023-03-24T04:00:08.250Z,10.58
2023-03-24T04:02:40.132Z,10.60
2023-03-24T04:05:14.165Z,10.58
2023-03-24T04:07:46.186Z,10.63
2023-03-24T04:10:17.697Z,10.65
2023-03-24T04:12:49.366Z,10.68
2023-03-24T04:15:21.957Z,10.75
2023-03-24T04:17:53.747Z,10.79
2023-03-24T04:20:25.352Z,10.80
2023-03-24T04:22:56.875Z,10.86
2023-03-24T04:25:28.396Z,10.87
2023-03-24T04:28:01.113Z,10.88
2023-03-24T04:30:32.933Z,10.94
2023-03-24T04:33:04.516Z,10.98
2023-03-24T04:35:36.562Z,10.99
2023-03-24T04:38:09.536Z,11.02
2023-03-24T04:40:42.107Z,11.05
2023-03-24T04:43:14.205Z,11.07
2023-03-24T04:45:49.982Z,11.08
2023-03-24T04:48:22.043Z,11.12
2023-03-24T04:50:53.539Z,11.14
2023-03-24T04:53:25.242Z,11.14
2023-03-24T04:55:56.806Z,11.20
2023-03-24T04:58:28.609Z,11.18
2023-03-24T05:01:00.178Z,11.22
2023-03-24T05:03:32.018Z,11.27
2023-03-24T05:06:05.633Z,10.28
2023-03-24T05:08:37.594Z,11.33
2023-03-24T05:11:09.096Z,11.36
2023-03-24T05:13:41.145Z,11.39
2023-03-24T05:16:12.731Z,11.41
2023-03-24T05:18:44.286Z,11.45
2023-03-24T05:21:16.111Z,11.46
2023-03-24T05:23:47.644Z,11.48
2023-03-24T05:26:19.681Z,11.50
2023-03-24T05:28:51.197Z,11.51
2023-03-24T05:31:22.828Z,11.53
2023-03-24T05:33:54.360Z,11.55
2023-03-24T05:36:26.248Z,11.57
2023-03-24T05:38:57.799Z,11.57
2023-03-24T05:41:29.638Z,11.73
2023-03-24T05:44:01.275Z,11.68
2023-03-24T05:46:33.256Z,11.70
2023-03-24T05:49:04.777Z,11.73
2023-03-24T05:51:36.507Z,11.74
2023-03-24T05:54:08.550Z,11.73
2023-03-24T05:56:40.549Z,11.73
2023-03-24T05:59:12.159Z,11.67
2023-03-24T06:01:44.040Z,11.67
2023-03-24T06:04:15.557Z,11.71
2023-03-24T06:06:47.378Z,11.74
2023-03-24T06:09:19.500Z,11.73
2023-03-24T06:11:51.381Z,11.80
2023-03-24T06:14:22.871Z,11.84
2023-03-24T06:16:54.424Z,11.82
2023-03-24T06:19:25.957Z,11.85
2023-03-24T06:22:00.490Z,11.89
2023-03-24T06:24:32.041Z,12.01
2023-03-24T06:27:03.987Z,12.07
2023-03-24T06:29:35.495Z,12.16
2023-03-24T06:32:07.063Z,12.24
2023-03-24T06:34:41.334Z,12.27
2023-03-24T06:37:13.188Z,12.30
2023-03-24T06:39:44.929Z,12.40
2023-03-24T06:42:16.873Z,12.43
2023-03-24T06:44:48.345Z,12.51
2023-03-24T06:47:20.283Z,12.58
2023-03-24T06:49:51.782Z,12.70
2023-03-24T06:52:24.924Z,12.61
2023-03-24T06:54:58.182Z,12.79
2023-03-24T06:57:29.947Z,12.95
2023-03-24T07:00:01.527Z,12.92
2023-03-24T07:02:36.010Z,12.99
2023-03-24T07:05:09.354Z,12.86
2023-03-24T07:10:16.371Z,13.13
2023-03-24T07:12:48.463Z,13.24
2023-03-24T07:15:19.957Z,13.14
2023-03-24T07:17:51.854Z,13.28
2023-03-24T07:20:23.417Z,13.52
2023-03-24T07:22:54.937Z,13.50
2023-03-24T07:25:26.575Z,13.54
2023-03-24T07:27:58.330Z,13.75
2023-03-24T07:30:39.992Z,13.81
2023-03-24T07:33:12.954Z,14.12
2023-03-24T07:35:44.665Z,14.12
2023-03-24T07:38:16.437Z,14.07
2023-03-24T07:40:48.166Z,13.86
2023-03-24T07:43:20.020Z,13.89
2023-03-24T07:45:51.612Z,13.79
2023-03-24T07:48:23.432Z,13.80
2023-03-24T07:50:54.998Z,13.66
2023-03-24T07:53:26.916Z,13.69
2023-03-24T07:55:58.501Z,13.66
2023-03-24T07:58:30.262Z,13.43
2023-03-24T08:01:01.760Z,13.30
2023-03-24T08:03:34.297Z,13.24
2023-03-24T08:06:05.853Z,13.09
2023-03-24T08:08:37.671Z,13.14
2023-03-24T08:11:09.207Z,13.05
2023-03-24T08:13:41.114Z,13.02
2023-03-24T08:16:12.739Z,12.87
2023-03-24T08:18:44.446Z,12.71
2023-03-24T08:21:15.983Z,12.70
2023-03-24T08:23:47.853Z,12.65
2023-03-24T08:26:19.336Z,12.60
2023-03-24T08:28:50.855Z,12.55
2023-03-24T08:31:22.438Z,12.57
2023-03-24T08:33:53.992Z,12.67
2023-03-24T08:36:26.579Z,12.76
2023-03-24T08:38:58.269Z,12.67
2023-03-24T08:41:35.012Z,12.71
2023-03-24T08:44:07.831Z,12.64
2023-03-24T08:46:39.404Z,12.63
2023-03-24T08:49:11.227Z,12.66
2023-03-24T08:51:42.697Z,12.73
2023-03-24T08:54:14.565Z,12.92
2023-03-24T08:56:46.127Z,13.02
2023-03-24T08:59:18.005Z,13.11
2023-03-24T09:01:49.563Z,13.07
2023-03-24T09:04:22.117Z,13.09
2023-03-24T09:07:01.660Z,13.09
2023-03-24T09:09:34.945Z,13.33
2023-03-24T09:12:06.421Z,13.33
2023-03-24T09:14:38.260Z,13.35
2023-03-24T09:17:09.729Z,13.18
2023-03-24T09:19:41.558Z,13.08
2023-03-24T09:22:13.045Z,13.09
2023-03-24T09:24:45.188Z,13.12
2023-03-24T09:27:16.666Z,13.19
2023-03-24T09:29:48.497Z,13.07
2023-03-24T09:32:19.972Z,13.56
2023-03-24T09:34:51.811Z,13.90
2023-03-24T09:37:23.322Z,14.31
2023-03-24T09:39:55.069Z,14.44
2023-03-24T09:42:26.564Z,15.17
2023-03-24T09:44:58.189Z,16.29
2023-03-24T09:47:30.083Z,16.23
2023-03-24T09:50:01.596Z,16.10
2023-03-24T09:52:33.395Z,15.75
2023-03-24T09:55:04.986Z,15.78
2023-03-24T09:57:36.932Z,15.38
2023-03-24T10:00:08.405Z,15.47
2023-03-24T10:02:40.294Z,15.53
2023-03-24T10:05:11.847Z,15.04
2023-03-24T10:07:43.758Z,14.93
2023-03-24T10:10:15.264Z,14.81
2023-03-24T10:12:47.084Z,14.67
2023-03-24T10:15:34.642Z,14.78
2023-03-24T10:18:09.360Z,14.73
2023-03-24T10:20:40.837Z,14.79
2023-03-24T10:23:12.644Z,14.97
2023-03-24T10:25:44.153Z,15.38
2023-03-24T10:28:15.777Z,15.33
2023-03-24T10:30:48.322Z,15.93
2023-03-24T10:33:21.291Z,15.93
2023-03-24T10:35:52.834Z,16.15
2023-03-24T10:38:24.762Z,16.36
2023-03-24T10:40:56.246Z,16.61
2023-03-24T10:43:28.513Z,16.96
2023-03-24T10:46:00.202Z,16.52
2023-03-24T10:48:31.798Z,16.79
2023-03-24T10:51:03.487Z,16.50
2023-03-24T10:53:35.344Z,16.20
2023-03-24T10:56:06.869Z,16.19
2023-03-24T10:58:38.827Z,15.97
2023-03-24T11:01:10.404Z,16.05
2023-03-24T11:03:43.101Z,15.96
2023-03-24T11:06:14.638Z,15.83
2023-03-24T11:08:46.294Z,15.97
2023-03-24T11:11:17.810Z,16.15
2023-03-24T11:13:49.501Z,16.38
2023-03-24T11:16:21.395Z,16.18
2023-03-24T11:18:52.907Z,16.48
2023-03-24T11:21:24.440Z,16.46
2023-03-24T11:23:55.977Z,16.45
2023-03-24T11:26:27.488Z,17.17
2023-03-24T11:28:59.093Z,16.88
2023-03-24T11:31:30.840Z,17.46
2023-03-24T11:34:03.090Z,17.45
2023-03-24T11:36:34.708Z,16.98
2023-03-24T11:39:06.609Z,17.78
2023-03-24T11:41:38.125Z,18.26
2023-03-24T11:44:09.887Z,18.10
2023-03-24T11:46:41.444Z,17.61
2023-03-24T11:49:13.123Z,17.40
2023-03-24T11:51:44.845Z,17.91
2023-03-24T11:54:16.647Z,18.38
2023-03-24T11:56:48.163Z,17.77
2023-03-24T11:59:19.855Z,17.19
2023-03-24T12:01:51.355Z,17.31
2023-03-24T12:04:23.161Z,17.46
2023-03-24T12:06:55.520Z,17.92
2023-03-24T12:09:27.782Z,17.59
2023-03-24T12:11:59.261Z,17.57
2023-03-24T12:14:31.011Z,18.08
2023-03-24T12:17:03.660Z,17.36
2023-03-24T12:19:35.802Z,17.35
2023-03-24T12:22:07.353Z,17.35
2023-03-24T12:24:39.228Z,16.96
2023-03-24T12:27:10.845Z,17.30
2023-03-24T12:29:43.081Z,17.32
2023-03-24T12:32:14.675Z,16.94
2023-03-24T12:34:46.434Z,16.87
2023-03-24T12:37:17.939Z,16.68
2023-03-24T12:39:49.711Z,16.35
2023-03-24T12:42:21.255Z,16.47
2023-03-24T12:44:53.119Z,16.47
2023-03-24T12:47:24.957Z,16.55
2023-03-24T12:49:56.539Z,16.15
2023-03-24T12:52:28.136Z,16.18
2023-03-24T12:55:05.110Z,16.05
2023-03-24T12:57:36.739Z,16.31
2023-03-24T13:00:11.658Z,16.08
2023-03-24T13:02:43.319Z,16.04
2023-03-24T13:05:17.051Z,16.00
2023-03-24T13:07:53.808Z,16.00
2023-03-24T13:10:25.900Z,16.22
2023-03-24T13:12:57.460Z,16.10
2023-03-24T13:15:29.266Z,16.02
2023-03-24T13:18:00.841Z,15.97
2023-03-24T13:20:32.708Z,16.08
2023-03-24T13:23:04.192Z,16.10
2023-03-24T13:25:38.465Z,16.06
2023-03-24T13:28:09.959Z,16.44
2023-03-24T13:30:41.804Z,16.30
2023-03-24T13:33:13.371Z,16.11
2023-03-24T13:35:45.257Z,15.96
2023-03-24T13:38:17.872Z,15.82
2023-03-24T13:40:50.707Z,15.59
2023-03-24T13:43:22.217Z,15.60
2023-03-24T13:45:53.913Z,15.73
2023-03-24T13:48:25.759Z,15.65
2023-03-24T13:50:57.270Z,15.65
2023-03-24T13:53:28.741Z,15.72
2023-03-24T13:56:01.277Z,15.74
2023-03-24T13:58:32.854Z,15.78
2023-03-24T14:01:04.602Z,15.93
2023-03-24T14:03:36.719Z,16.05
2023-03-24T14:06:09.496Z,16.33
2023-03-24T14:08:41.532Z,16.73
2023-03-24T14:11:13.029Z,16.84
2023-03-24T14:13:44.941Z,16.39
2023-03-24T14:16:16.436Z,16.16
2023-03-24T14:18:48.059Z,16.39
2023-03-24T14:21:19.591Z,16.29
2023-03-24T14:23:53.416Z,16.09
2023-03-24T14:26:25.026Z,15.91
2023-03-24T14:28:56.535Z,16.04
2023-03-24T14:31:29.074Z,15.73
2023-03-24T14:34:05.756Z,16.17
2023-03-24T14:36:40.468Z,16.06
2023-03-24T14:39:12.388Z,16.54
2023-03-24T14:41:44.283Z,16.47
2023-03-24T14:44:16.175Z,16.31
2023-03-24T14:46:48.098Z,16.03
2023-03-24T14:49:20.206Z,15.86
2023-03-24T14:51:51.784Z,15.94
2023-03-24T14:54:23.594Z,15.98
2023-03-24T14:56:55.333Z,16.30
2023-03-24T14:59:27.271Z,16.21
2023-03-24T15:01:59.383Z,16.00
2023-03-24T15:04:33.611Z,15.96
2023-03-24T15:07:06.301Z,16.41
2023-03-24T15:09:40.901Z,16.22
2023-03-24T15:12:12.414Z,15.84
2023-03-24T15:14:44.219Z,15.87
2023-03-24T15:17:15.758Z,15.73
2023-03-24T15:19:47.563Z,16.05
2023-03-24T15:22:19.235Z,16.38
2023-03-24T15:24:51.191Z,16.62
2023-03-24T15:27:22.722Z,16.38
2023-03-24T15:29:54.261Z,16.21
2023-03-24T15:32:27.354Z,16.53
2023-03-24T15:34:59.211Z,16.72
2023-03-24T15:37:30.988Z,15.97
2023-03-24T15:40:15.352Z,15.94
2023-03-24T15:42:47.394Z,15.86
2023-03-24T15:45:19.250Z,16.13
2023-03-24T15:47:50.929Z,15.78
2023-03-24T15:50:22.538Z,15.57
2023-03-24T15:52:54.047Z,15.56
2023-03-24T15:55:26.507Z,15.61
2023-03-24T15:57:58.041Z,15.57
2023-03-24T16:00:29.560Z,15.56
2023-03-24T16:03:01.189Z,15.29
2023-03-24T16:05:32.770Z,15.28
2023-03-24T16:08:05.798Z,15.20
2023-03-24T16:10:40.719Z,15.31
2023-03-24T16:13:12.566Z,15.18
2023-03-24T16:15:44.481Z,15.12
2023-03-24T16:18:16.115Z,15.09
2023-03-24T16:20:48.391Z,15.02
2023-03-24T16:23:20.133Z,14.93
2023-03-24T16:25:51.905Z,14.70
2023-03-24T16:28:24.763Z,14.72
2023-03-24T16:30:57.094Z,14.83
2023-03-24T16:33:30.324Z,14.76
2023-03-24T16:36:01.986Z,14.62
2023-03-24T16:38:34.164Z,14.62
2023-03-24T16:41:05.938Z,14.52
2023-03-24T16:43:37.416Z,14.54
2023-03-24T16:46:09.663Z,14.58
2023-03-24T16:48:41.506Z,14.60
2023-03-24T16:51:13.780Z,14.64
2023-03-24T16:53:45.254Z,14.63
2023-03-24T16:56:16.807Z,14.54
2023-03-24T16:58:48.580Z,14.31
2023-03-24T17:01:29.678Z,14.22
2023-03-24T17:04:01.269Z,14.22
2023-03-24T17:06:33.127Z,13.42
2023-03-24T17:09:05.961Z,14.03
2023-03-24T17:11:37.786Z,13.97
2023-03-24T17:14:12.191Z,14.02
2023-03-24T17:16:45.053Z,13.92
2023-03-24T17:19:16.610Z,13.80
2023-03-24T17:21:48.492Z,13.73
2023-03-24T17:24:19.997Z,13.65
2023-03-24T17:26:51.510Z,13.54
2023-03-24T17:29:23.444Z,13.44
2023-03-24T17:31:55.012Z,13.35
2023-03-24T17:34:26.495Z,13.31
2023-03-24T17:36:57.985Z,13.27
2023-03-24T17:39:29.564Z,13.15
2023-03-24T17:42:01.453Z,13.12
2023-03-24T17:44:32.966Z,13.05
2023-03-24T17:47:04.585Z,12.97
2023-03-24T17:49:37.375Z,12.91
2023-03-24T17:52:09.318Z,12.78
2023-03-24T17:54:40.951Z,12.74
2023-03-24T17:57:12.880Z,12.60
2023-03-24T17:59:44.434Z,12.63
2023-03-24T18:02:18.059Z,12.59
2023-03-24T18:04:49.851Z,12.56
2023-03-24T18:07:21.381Z,12.47
2023-03-24T18:09:53.210Z,12.38
2023-03-24T18:12:24.702Z,12.28
2023-03-24T18:14:56.196Z,12.23
2023-03-24T18:17:27.754Z,12.12
2023-03-24T18:20:08.671Z,12.08
2023-03-24T18:22:40.996Z,12.05
2023-03-24T18:25:13.849Z,11.96
2023-03-24T18:27:45.517Z,11.85
2023-03-24T18:30:17.432Z,11.80
2023-03-24T18:32:49.086Z,11.71
2023-03-24T18:35:20.982Z,11.57
2023-03-24T18:37:52.744Z,11.49
2023-03-24T18:40:24.274Z,11.45
2023-03-24T18:42:55.797Z,11.40
2023-03-24T18:45:27.655Z,11.32
2023-03-24T18:47:59.221Z,11.20
2023-03-24T18:50:30.894Z,11.16
2023-03-24T18:53:02.412Z,11.12
2023-03-24T18:55:33.950Z,11.10
2023-03-24T18:58:05.476Z,11.03
2023-03-24T19:00:36.998Z,11.00
2023-03-24T19:03:08.603Z,10.95
2023-03-24T19:05:40.763Z,10.87
2023-03-24T19:08:14.988Z,10.83
2023-03-24T19:10:46.700Z,10.77
2023-03-24T19:13:18.312Z,10.70
2023-03-24T19:15:55.069Z,10.63
2023-03-24T19:18:26.848Z,10.61
2023-03-24T19:20:58.700Z,10.61
2023-03-24T19:23:30.278Z,10.62
2023-03-24T19:26:02.310Z,10.68
2023-03-24T19:28:35.563Z,10.70
2023-03-24T19:31:09.187Z,10.74
2023-03-24T19:33:40.754Z,10.66
2023-03-24T19:36:12.527Z,10.76
2023-03-24T19:38:44.352Z,10.92
2023-03-24T19:41:16.266Z,10.86
2023-03-24T19:43:47.823Z,10.83
2023-03-24T19:46:22.528Z,10.82
2023-03-24T19:48:54.139Z,10.66
2023-03-24T19:51:25.691Z,10.81
2023-03-24T19:53:57.190Z,10.79
2023-03-24T19:56:28.818Z,10.79
2023-03-24T19:59:00.482Z,10.81
2023-03-24T20:01:35.850Z,10.83
2023-03-24T20:04:07.522Z,10.89
2023-03-24T20:06:39.346Z,10.87
2023-03-24T20:09:10.937Z,10.85
2023-03-24T20:11:42.949Z,10.87
2023-03-24T20:14:16.802Z,10.92
2023-03-24T20:16:48.627Z,10.93
2023-03-24T20:19:20.403Z,10.91
2023-03-24T20:21:52.260Z,10.85
2023-03-24T20:24:23.790Z,10.83
2023-03-24T20:26:55.490Z,10.84
2023-03-24T20:29:27.014Z,10.82
2023-03-24T20:31:58.885Z,10.81
2023-03-24T20:34:30.611Z,10.76
2023-03-24T20:37:02.486Z,10.65
2023-03-24T20:39:34.085Z,10.68
2023-03-24T20:42:06.353Z,10.67
2023-03-24T20:44:37.874Z,10.61
2023-03-24T20:47:09.527Z,10.57
2023-03-24T20:49:41.331Z,10.54
2023-03-24T20:52:14.670Z,10.50
2023-03-24T20:54:46.191Z,10.45
2023-03-24T20:57:18.018Z,10.41
2023-03-24T20:59:49.592Z,10.36
2023-03-24T21:02:21.381Z,10.32
2023-03-24T21:04:52.899Z,10.27
2023-03-24T21:07:24.712Z,10.29
2023-03-24T21:09:56.278Z,10.24
2023-03-24T21:12:27.817Z,10.23
2023-03-24T21:14:59.334Z,10.20
2023-03-24T21:17:34.193Z,10.11
2023-03-24T21:20:13.458Z,10.03
2023-03-24T21:22:53.750Z,10.03
2023-03-24T21:25:25.250Z,10.02
2023-03-24T21:27:57.303Z,9.98
2023-03-24T21:30:28.856Z,10.02
2023-03-24T21:33:01.369Z,10.00
2023-03-24T21:35:32.993Z,10.05
2023-03-24T21:38:05.730Z,10.03
2023-03-24T21:40:37.320Z,10.05
2023-03-24T21:43:09.195Z,9.97
2023-03-24T21:45:40.750Z,9.95
2023-03-24T21:48:14.401Z,9.97
2023-03-24T21:50:46.146Z,9.93
2023-03-24T21:53:18.031Z,9.83
2023-03-24T21:55:50.047Z,9.80
2023-03-24T21:58:22.099Z,9.77
2023-03-24T22:00:53.623Z,9.69
2023-03-24T22:03:25.760Z,9.59
2023-03-24T22:05:57.337Z,9.52
2023-03-24T22:08:30.494Z,9.49
2023-03-24T22:11:04.179Z,9.45
2023-03-24T22:13:37.397Z,9.44
2023-03-24T22:16:08.939Z,9.37
2023-03-24T22:18:41.231Z,9.26
2023-03-24T22:21:12.783Z,9.23
2023-03-24T22:23:44.950Z,9.20
2023-03-24T22:26:17.011Z,9.19
2023-03-24T22:28:48.652Z,9.17
2023-03-24T22:31:23.036Z,9.17
2023-03-24T22:33:54.743Z,9.16
2023-03-24T22:36:26.243Z,9.16
2023-03-24T22:38:57.831Z,9.17
2023-03-24T22:41:29.344Z,9.19
2023-03-24T22:44:01.042Z,9.22
2023-03-24T22:46:32.575Z,9.23
2023-03-24T22:49:04.179Z,9.22
2023-03-24T22:51:35.761Z,9.24
2023-03-24T22:54:07.560Z,9.25
2023-03-24T22:56:39.070Z,9.28
2023-03-24T22:59:10.602Z,8.06
2023-03-24T23:01:42.178Z,9.15
2023-03-24T23:04:14.064Z,9.09
2023-03-24T23:06:46.785Z,8.95
2023-03-24T23:09:18.312Z,8.86
2023-03-24T23:11:49.956Z,8.81
2023-03-24T23:14:21.522Z,8.72
2023-03-24T23:16:54.291Z,8.60
2023-03-24T23:19:26.067Z,8.58
2023-03-24T23:21:58.706Z,8.52
2023-03-24T23:24:31.517Z,8.52
2023-03-24T23:27:04.593Z,8.49
2023-03-24T23:29:36.439Z,8.43
2023-03-24T23:32:07.941Z,7.19
2023-03-24T23:34:43.031Z,8.36
2023-03-24T23:37:14.652Z,8.29
2023-03-24T23:39:50.532Z,8.24
2023-03-24T23:42:22.022Z,8.23
2023-03-24T23:44:53.765Z,8.21
2023-03-24T23:47:25.284Z,8.13
2023-03-24T23:49:57.143Z,8.14
2023-03-24T23:52:28.652Z,8.10
2023-03-24T23:55:02.261Z,8.06
2023-03-24T23:57:34.114Z,8.01
